Time;durP1;ratioP1;P1;durP2;ratioP2;P2;SDS_P1;SDS_P2;PMS_P1;PMS_P2;Temp;Humidity;BMP_temperature;BMP_pressure;BME280_temperature;BME280_humidity;BME280_pressure;Samples;Min_cycle;Max_cycle;Signal;HPM_P1;HPM_P2
2023/03/20 00:00:37;;;;;;;;;;;;;;;8.68;62.52;100410.44;5575318;31;34598;-67
2023/03/20 00:03:46;;;;;;;;;;;;;;;8.58;63.21;100417.63;5576060;31;34451;-68
2023/03/20 00:06:53;;;;;;;;;;;;;;;8.51;63.58;100417.44;5589332;31;34453;-68
2023/03/20 00:10:04;;;;;;;;;;;;;;;8.65;63.26;100422.16;5575271;31;33880;-68
2023/03/20 00:13:23;;;;;;;;;;;;;;;8.58;63.75;100428.22;5588931;31;34492;-68
2023/03/20 00:16:35;;;;;;;;;;;;;;;8.50;64.20;100415.78;5589228;31;34373;-67
2023/03/20 00:19:44;;;;;;;;;;;;;;;8.66;63.52;100417.72;5576189;31;34926;-68
2023/03/20 00:22:52;;;;;;;;;;;;;;;8.58;63.73;100413.19;5574902;31;33272;-67
2023/03/20 00:25:59;;;;;;;;;;;;;;;8.67;64.03;100414.06;5588940;31;35114;-67
2023/03/20 00:29:14;;;;;;;;;;;;;;;8.58;64.14;100404.41;5589101;31;34121;-67
2023/03/20 00:32:22;;;;;;;;;;;;;;;8.48;65.08;100411.59;5574536;31;34769;-68
2023/03/20 00:35:29;;;;;;;;;;;;;;;8.53;64.57;100415.44;5589074;31;34383;-68
2023/03/20 00:38:38;;;;;;;;;;;;;;;8.45;65.39;100410.09;5562020;31;33096;-67
2023/03/20 00:41:45;;;;;;;;;;;;;;;8.40;65.42;100411.53;5589012;31;34455;-68
2023/03/20 00:44:53;;;;;;;;;;;;;;;8.41;65.53;100419.34;5562160;31;33524;-67
2023/03/20 00:48:02;;;;;;;;;;;;;;;8.45;65.46;100420.69;5588763;31;32971;-68
2023/03/20 00:51:09;;;;;;;;;;;;;;;8.28;66.16;100416.19;5588451;31;34440;-67
2023/03/20 00:54:17;;;;;;;;;;;;;;;8.30;66.41;100416.91;5575527;31;34500;-67
2023/03/20 00:57:25;;;;;;;;;;;;;;;8.27;66.56;100415.41;5562011;31;33113;-67
2023/03/20 01:00:36;;;;;;;;;;;;;;;8.39;65.82;100421.28;5575224;31;35006;-67
2023/03/20 01:03:44;;;;;;;;;;;;;;;8.36;66.37;100408.38;5549582;31;35793;-67
2023/03/20 01:06:55;;;;;;;;;;;;;;;8.28;65.62;100417.03;5549645;31;33521;-67
2023/03/20 01:10:10;;;;;;;;;;;;;;;8.28;66.24;100409.09;5588212;31;35208;-67
2023/03/20 01:13:22;;;;;;;;;;;;;;;8.25;66.70;100412.06;5588176;31;34555;-67
2023/03/20 01:16:29;;;;;;;;;;;;;;;8.18;67.37;100410.19;5574934;31;34567;-67
2023/03/20 01:19:41;;;;;;;;;;;;;;;8.14;67.38;100411.44;5561884;31;34447;-67
2023/03/20 01:22:53;;;;;;;;;;;;;;;8.06;68.35;100409.56;5587920;31;34488;-67
2023/03/20 01:26:02;;;;;;;;;;;;;;;8.03;68.10;100406.41;5560724;31;33786;-67
2023/03/20 01:29:19;;;;;;;;;;;;;;;8.08;67.32;100410.25;5587869;31;35186;-68
2023/03/20 01:32:26;;;;;;;;;;;;;;;8.03;67.75;100404.59;5574816;31;35314;-68
2023/03/20 01:35:35;;;;;;;;;;;;;;;7.95;68.90;100393.94;5561294;31;35299;-67
2023/03/20 01:38:46;;;;;;;;;;;;;;;8.05;67.95;100401.78;5574452;31;34629;-67
2023/03/20 01:41:55;;;;;;;;;;;;;;;7.91;69.11;100387.28;5561910;31;33523;-67
2023/03/20 01:45:09;;;;;;;;;;;;;;;7.86;69.21;100393.03;5590585;31;35226;-68
2023/03/20 01:48:18;;;;;;;;;;;;;;;7.89;69.92;100396.37;5563375;31;33570;-67
2023/03/20 01:51:31;;;;;;;;;;;;;;;7.90;69.74;100377.72;5577350;31;34167;-67
2023/03/20 01:54:42;;;;;;;;;;;;;;;7.91;69.50;100382.00;5590525;31;35201;-68
2023/03/20 01:57:52;;;;;;;;;;;;;;;8.01;68.80;100377.50;5590329;31;34419;-67
2023/03/20 02:01:02;;;;;;;;;;;;;;;7.86;69.67;100384.28;5564771;31;34487;-67
2023/03/20 02:04:11;;;;;;;;;;;;;;;7.89;69.97;100383.97;5577191;31;34571;-67
2023/03/20 02:07:25;;;;;;;;;;;;;;;7.96;68.64;100381.56;5590350;31;35148;-67
2023/03/20 02:10:35;;;;;;;;;;;;;;;7.94;68.53;100384.34;5590269;31;34511;-67
2023/03/20 02:13:44;;;;;;;;;;;;;;;8.08;67.47;100383.84;5575989;31;34980;-67
2023/03/20 02:16:57;;;;;;;;;;;;;;;8.01;68.25;100379.31;5576449;31;34183;-67
2023/03/20 02:20:08;;;;;;;;;;;;;;;7.92;68.58;100382.84;5576895;31;34712;-67
2023/03/20 02:23:26;;;;;;;;;;;;;;;7.81;68.77;100382.09;5590112;31;34789;-67
2023/03/20 02:26:38;;;;;;;;;;;;;;;7.79;69.64;100385.87;5577193;31;34521;-67
2023/03/20 02:29:56;;;;;;;;;;;;;;;7.71;70.05;100377.84;5590036;31;35058;-67
2023/03/20 02:33:27;;;;;;;;;;;;;;;7.71;69.64;100383.13;5576636;31;34574;-67
2023/03/20 02:36:58;;;;;;;;;;;;;;;7.67;69.94;100374.69;5563785;31;33331;-67
2023/03/20 02:40:07;;;;;;;;;;;;;;;7.81;69.17;100376.81;5590232;31;35264;-67
2023/03/20 02:43:34;;;;;;;;;;;;;;;7.68;69.83;100364.94;5590012;31;34390;-67
2023/03/20 02:46:43;;;;;;;;;;;;;;;7.77;69.45;100364.06;5590022;31;35079;-68
2023/03/20 02:49:52;;;;;;;;;;;;;;;7.69;70.17;100374.53;5575646;31;33303;-67
2023/03/20 02:53:22;;;;;;;;;;;;;;;7.75;69.44;100368.63;5589058;31;35768;-67
2023/03/20 02:56:36;;;;;;;;;;;;;;;7.64;69.89;100363.59;5576381;31;34521;-67
2023/03/20 02:59:51;;;;;;;;;;;;;;;7.50;70.58;100369.37;5576782;31;35116;-67
2023/03/20 03:03:05;;;;;;;;;;;;;;;7.32;72.52;100364.03;5577091;31;34442;-68
2023/03/20 03:06:17;;;;;;;;;;;;;;;7.30;73.31;100352.81;5589900;31;35154;-68
2023/03/20 03:09:26;;;;;;;;;;;;;;;7.30;72.76;100353.66;5575161;31;34840;-67
2023/03/20 03:12:38;;;;;;;;;;;;;;;7.29;73.26;100359.91;5589841;31;34141;-68
2023/03/20 03:15:47;;;;;;;;;;;;;;;7.28;73.22;100362.69;5576221;31;34636;-68
2023/03/20 03:19:08;;;;;;;;;;;;;;;7.13;74.49;100367.62;5576580;31;34653;-68
2023/03/20 03:22:23;;;;;;;;;;;;;;;7.13;75.11;100366.78;5589825;31;34710;-68
2023/03/20 03:25:35;;;;;;;;;;;;;;;7.10;74.76;100365.28;5563275;31;37111;-67
2023/03/20 03:28:49;;;;;;;;;;;;;;;7.21;74.21;100372.97;5589652;31;34629;-68
2023/03/20 03:32:01;;;;;;;;;;;;;;;7.10;74.85;100364.44;5576895;31;34083;-68
2023/03/20 03:35:13;;;;;;;;;;;;;;;6.95;76.00;100374.66;5576813;31;35194;-67
2023/03/20 03:38:36;;;;;;;;;;;;;;;6.73;78.66;100369.75;5576273;31;35026;-68
2023/03/20 03:41:43;;;;;;;;;;;;;;;6.58;79.33;100376.44;5576363;31;35086;-67
2023/03/20 03:44:56;;;;;;;;;;;;;;;6.48;80.29;100379.91;5576070;31;34196;-68
2023/03/20 03:48:10;;;;;;;;;;;;;;;6.44;82.00;100378.50;5575279;31;33543;-67
2023/03/20 03:51:22;;;;;;;;;;;;;;;6.43;82.18;100379.50;5575396;31;35629;-68
2023/03/20 03:54:36;;;;;;;;;;;;;;;6.37;83.74;100384.50;5576448;31;34507;-68
2023/03/20 03:57:55;;;;;;;;;;;;;;;6.37;84.94;100384.50;5575160;31;34813;-68
2023/03/20 04:01:07;;;;;;;;;;;;;;;6.31;84.79;100387.69;5563155;31;34083;-68
2023/03/20 04:04:17;;;;;;;;;;;;;;;6.35;84.38;100392.53;5575959;31;34496;-67
2023/03/20 04:07:28;;;;;;;;;;;;;;;6.30;84.78;100389.50;5562913;31;33125;-68
2023/03/20 04:10:40;;;;;;;;;;;;;;;6.25;85.12;100391.72;5589352;31;34643;-69
2023/03/20 04:13:52;;;;;;;;;;;;;;;6.19;85.50;100396.72;5562750;31;33408;-68
2023/03/20 04:17:00;;;;;;;;;;;;;;;6.16;85.57;100396.97;5575888;31;35224;-68
2023/03/20 04:20:10;;;;;;;;;;;;;;;6.02;86.27;100399.06;5576028;31;34612;-68
2023/03/20 04:23:21;;;;;;;;;;;;;;;6.32;85.18;100403.37;5562670;31;33351;-67
2023/03/20 04:26:28;;;;;;;;;;;;;;;6.30;85.94;100407.09;5575722;31;34140;-67
2023/03/20 04:29:37;;;;;;;;;;;;;;;6.33;86.32;100402.41;5588929;31;34559;-68
2023/03/20 04:32:49;;;;;;;;;;;;;;;6.21;86.20;100413.19;5589114;31;34624;-68
2023/03/20 04:35:55;;;;;;;;;;;;;;;6.23;86.54;100406.00;5575520;31;34509;-68
2023/03/20 04:39:03;;;;;;;;;;;;;;;6.30;86.74;100407.94;5563261;31;34516;-68
2023/03/20 04:42:11;;;;;;;;;;;;;;;6.14;87.29;100418.22;5574633;31;33393;-68
2023/03/20 04:45:19;;;;;;;;;;;;;;;6.02;88.12;100412.25;5588674;31;34578;-67
2023/03/20 04:48:29;;;;;;;;;;;;;;;6.19;88.16;100408.09;5575174;31;34631;-69
2023/03/20 04:51:36;;;;;;;;;;;;;;;6.00;90.47;100410.72;5588599;31;34628;-68
2023/03/20 04:54:46;;;;;;;;;;;;;;;6.09;90.24;100407.25;5588596;31;34447;-68
2023/03/20 04:57:55;;;;;;;;;;;;;;;6.09;90.69;100408.09;5562499;31;33911;-67
2023/03/20 05:01:02;;;;;;;;;;;;;;;6.14;90.32;100412.12;5588488;31;34068;-68
2023/03/20 05:04:09;;;;;;;;;;;;;;;6.03;91.43;100413.91;5588404;31;34529;-67
2023/03/20 05:07:19;;;;;;;;;;;;;;;6.04;90.99;100417.38;5575167;31;34595;-67
2023/03/20 05:10:26;;;;;;;;;;;;;;;6.00;91.71;100416.00;5574959;31;34428;-68
2023/03/20 05:13:34;;;;;;;;;;;;;;;5.96;92.99;100422.47;5587880;31;34712;-67
2023/03/20 05:16:43;;;;;;;;;;;;;;;5.97;93.44;100430.25;5575639;31;34881;-67
2023/03/20 05:19:51;;;;;;;;;;;;;;;6.07;91.94;100425.81;5590563;31;34268;-68
2023/03/20 05:22:59;;;;;;;;;;;;;;;6.17;92.12;100430.25;5577602;31;34648;-67
2023/03/20 05:26:11;;;;;;;;;;;;;;;6.16;91.36;100437.31;5590710;31;34094;-68
2023/03/20 05:29:19;;;;;;;;;;;;;;;6.22;90.79;100434.16;5576776;31;34867;-68
2023/03/20 05:32:38;;;;;;;;;;;;;;;6.32;91.04;100439.41;5590682;31;35145;-68
2023/03/20 05:35:45;;;;;;;;;;;;;;;6.27;90.60;100436.38;5575702;31;33497;-68
2023/03/20 05:38:54;;;;;;;;;;;;;;;6.25;90.99;100443.56;5590621;31;35038;-68
2023/03/20 05:42:00;;;;;;;;;;;;;;;6.24;90.93;100449.81;5577057;31;34650;-67
2023/03/20 05:45:07;;;;;;;;;;;;;;;6.32;90.41;100444.69;5577261;31;35049;-67
2023/03/20 05:48:14;;;;;;;;;;;;;;;6.28;90.45;100440.66;5577392;31;34349;-68
2023/03/20 05:51:20;;;;;;;;;;;;;;;6.36;90.13;100436.38;5590232;31;34536;-67
2023/03/20 05:54:25;;;;;;;;;;;;;;;6.64;88.59;100439.09;5576452;31;35821;-68
2023/03/20 05:57:35;;;;;;;;;;;;;;;6.58;88.70;100437.06;5590125;31;34379;-67
2023/03/20 06:00:43;;;;;;;;;;;;;;;6.54;90.01;100442.59;5590399;31;34738;-67
2023/03/20 06:03:49;;;;;;;;;;;;;;;6.68;89.21;100443.16;5590136;31;34558;-68
2023/03/20 06:06:59;;;;;;;;;;;;;;;6.79;87.96;100448.25;5590134;31;34578;-66
2023/03/20 06:10:07;;;;;;;;;;;;;;;7.07;85.17;100459.72;5590320;31;34969;-67
2023/03/20 06:13:13;;;;;;;;;;;;;;;7.17;81.18;100453.41;5576708;31;34701;-67
2023/03/20 06:16:21;;;;;;;;;;;;;;;7.19;79.89;100463.81;5590282;31;34483;-67
2023/03/20 06:19:27;;;;;;;;;;;;;;;7.34;78.00;100467.66;5576082;31;33771;-68
2023/03/20 06:22:33;;;;;;;;;;;;;;;7.38;78.66;100455.84;5590435;31;34726;-68
2023/03/20 06:25:37;;;;;;;;;;;;;;;7.49;77.75;100457.47;5590069;31;35693;-68
2023/03/20 06:28:47;;;;;;;;;;;;;;;7.65;77.55;100465.59;5563173;31;35140;-69
2023/03/20 06:31:56;;;;;;;;;;;;;;;7.69;76.22;100469.59;5576662;31;33072;-68
2023/03/20 06:35:04;;;;;;;;;;;;;;;8.16;73.44;100459.69;5576470;31;35685;-68
2023/03/20 06:38:13;;;;;;;;;;;;;;;8.29;72.63;100453.09;5576747;31;35081;-69
2023/03/20 06:41:20;;;;;;;;;;;;;;;8.63;70.37;100462.97;5576264;31;34443;-68
2023/03/20 06:44:39;;;;;;;;;;;;;;;8.55;70.18;100468.19;5577592;31;34571;-68
2023/03/20 06:47:45;;;;;;;;;;;;;;;8.53;69.09;100464.84;5575816;31;34544;-68
2023/03/20 06:50:51;;;;;;;;;;;;;;;8.89;67.20;100478.88;5589563;31;34848;-68
2023/03/20 06:53:57;;;;;;;;;;;;;;;9.12;66.09;100480.84;5589375;31;34605;-67
2023/03/20 06:57:03;;;;;;;;;;;;;;;9.53;64.93;100481.06;5589650;31;35257;-68
2023/03/20 07:00:09;;;;;;;;;;;;;;;9.18;65.11;100476.75;5575682;31;34308;-68
2023/03/20 07:03:14;;;;;;;;;;;;;;;9.30;65.00;100472.84;5562901;31;34442;-67
2023/03/20 07:06:20;;;;;;;;;;;;;;;9.85;62.57;100475.91;5562245;31;34492;-68
2023/03/20 07:09:25;;;;;;;;;;;;;;;9.95;62.28;100476.59;5575923;31;34443;-68
2023/03/20 07:12:30;;;;;;;;;;;;;;;10.78;58.83;100485.34;5576062;31;34622;-68
2023/03/20 07:15:34;;;;;;;;;;;;;;;11.17;57.53;100479.34;5575318;31;33532;-69
2023/03/20 07:18:40;;;;;;;;;;;;;;;11.29;57.36;100478.81;5562739;31;35075;-68
2023/03/20 07:21:44;;;;;;;;;;;;;;;10.96;58.93;100482.50;5576185;31;34864;-69
2023/03/20 07:24:50;;;;;;;;;;;;;;;11.76;56.66;100481.50;5589442;31;34888;-69
2023/03/20 07:27:58;;;;;;;;;;;;;;;11.32;57.31;100475.81;5589617;31;34582;-68
2023/03/20 07:31:02;;;;;;;;;;;;;;;11.58;55.39;100477.37;5562417;31;35281;-70
2023/03/20 07:34:07;;;;;;;;;;;;;;;11.88;54.84;100476.63;5589476;31;34654;-70
2023/03/20 07:37:11;;;;;;;;;;;;;;;11.61;55.09;100475.22;5575397;31;34527;-69
2023/03/20 07:40:15;;;;;;;;;;;;;;;11.68;55.18;100478.84;5588783;31;35066;-68
2023/03/20 07:43:21;;;;;;;;;;;;;;;11.66;54.94;100474.72;5574912;31;34079;-69
2023/03/20 07:46:31;;;;;;;;;;;;;;;11.91;54.02;100475.47;5589206;31;34620;-69
2023/03/20 07:49:36;;;;;;;;;;;;;;;12.22;53.18;100476.28;5575403;31;34568;-68
2023/03/20 07:52:50;;;;;;;;;;;;;;;12.39;52.47;100480.47;5589093;31;34764;-69
2023/03/20 07:55:58;;;;;;;;;;;;;;;12.85;50.83;100478.63;5562817;31;33136;-70
2023/03/20 07:59:02;;;;;;;;;;;;;;;14.17;46.79;100472.47;5589205;31;34089;-70
2023/03/20 08:02:06;;;;;;;;;;;;;;;14.91;44.67;100478.34;5588639;31;34485;-69
2023/03/20 08:05:10;;;;;;;;;;;;;;;15.57;44.07;100484.97;5562322;31;33965;-69
2023/03/20 08:08:14;;;;;;;;;;;;;;;16.24;42.51;100482.38;5562068;31;33986;-69
2023/03/20 08:11:24;;;;;;;;;;;;;;;16.35;40.59;100484.47;5589086;31;34013;-69
2023/03/20 08:14:32;;;;;;;;;;;;;;;16.33;40.43;100485.69;5574972;31;33232;-69
2023/03/20 08:17:37;;;;;;;;;;;;;;;16.61;39.32;100485.53;5589157;31;35105;-69
2023/03/20 08:20:41;;;;;;;;;;;;;;;17.49;36.77;100487.78;5562213;31;33390;-69
2023/03/20 08:23:45;;;;;;;;;;;;;;;17.89;35.50;100488.50;5588977;31;34636;-70
2023/03/20 08:26:50;;;;;;;;;;;;;;;17.98;35.48;100489.09;5575245;31;35612;-70
2023/03/20 08:29:54;;;;;;;;;;;;;;;17.06;36.89;100483.91;5575419;31;35112;-71
2023/03/20 08:32:58;;;;;;;;;;;;;;;17.19;36.74;100486.56;5561998;31;33120;-69
2023/03/20 08:36:03;;;;;;;;;;;;;;;17.17;36.94;100486.81;5588881;31;35591;-69
2023/03/20 08:39:07;;;;;;;;;;;;;;;17.52;36.28;100482.00;5575566;31;34563;-69
2023/03/20 08:42:13;;;;;;;;;;;;;;;17.57;36.04;100487.53;5575427;31;34579;-70
2023/03/20 08:45:16;;;;;;;;;;;;;;;17.31;36.55;100499.16;5574979;31;34549;-69
2023/03/20 08:48:21;;;;;;;;;;;;;;;17.03;36.57;100492.38;5575211;31;35376;-70
2023/03/20 08:51:26;;;;;;;;;;;;;;;17.26;36.78;100498.97;5573854;31;34432;-70
2023/03/20 08:54:32;;;;;;;;;;;;;;;16.56;37.54;100504.03;5588603;31;35314;-68
2023/03/20 08:57:39;;;;;;;;;;;;;;;15.97;38.53;100502.88;5574815;31;34217;-69
2023/03/20 09:00:44;;;;;;;;;;;;;;;15.68;39.20;100505.00;5588547;31;34127;-69
2023/03/20 09:03:49;;;;;;;;;;;;;;;15.79;39.34;100493.72;5588429;31;34748;-69
2023/03/20 09:06:54;;;;;;;;;;;;;;;15.80;39.01;100501.53;5575075;31;35106;-69
2023/03/20 09:09:59;;;;;;;;;;;;;;;15.65;38.79;100507.03;5574074;31;33381;-69
2023/03/20 09:13:06;;;;;;;;;;;;;;;15.63;39.49;100509.09;5574826;31;34810;-70
2023/03/20 09:16:29;;;;;;;;;;;;;;;15.91;38.93;100511.69;5576910;31;34634;-69
2023/03/20 09:19:38;;;;;;;;;;;;;;;15.83;39.52;100517.19;5574608;31;34492;-70
2023/03/20 09:22:44;;;;;;;;;;;;;;;16.07;39.27;100499.81;5574672;31;34655;-69
2023/03/20 09:25:50;;;;;;;;;;;;;;;16.41;38.94;100497.00;5561162;31;33540;-69
2023/03/20 09:28:54;;;;;;;;;;;;;;;16.83;38.75;100505.78;5587649;31;35242;-69
2023/03/20 09:31:59;;;;;;;;;;;;;;;17.00;36.93;100500.81;5574166;31;35402;-70
2023/03/20 09:35:05;;;;;;;;;;;;;;;16.71;37.32;100504.72;5573846;31;35035;-70
2023/03/20 09:38:11;;;;;;;;;;;;;;;16.00;38.29;100502.47;5573664;31;34899;-68
2023/03/20 09:41:26;;;;;;;;;;;;;;;15.73;39.26;100497.19;5560525;31;33831;-68
2023/03/20 09:44:31;;;;;;;;;;;;;;;16.01;38.29;100504.13;5587584;31;34596;-67
2023/03/20 09:47:34;;;;;;;;;;;;;;;15.49;39.24;100490.47;5587438;31;35193;-68
2023/03/20 09:50:47;;;;;;;;;;;;;;;15.79;39.27;100493.72;5587260;31;35134;-69
2023/03/20 09:54:01;;;;;;;;;;;;;;;15.65;39.22;100495.50;5587323;31;35022;-68
2023/03/20 09:57:10;;;;;;;;;;;;;;;15.73;39.41;100491.84;5573430;31;34707;-69
2023/03/20 10:00:16;;;;;;;;;;;;;;;16.36;38.65;100496.00;5560520;31;34640;-68
2023/03/20 10:03:25;;;;;;;;;;;;;;;16.18;39.70;100488.53;5575120;31;34457;-68
2023/03/20 10:06:29;;;;;;;;;;;;;;;16.52;39.64;100491.06;5576409;31;35156;-68
2023/03/20 10:09:34;;;;;;;;;;;;;;;15.98;39.72;100492.97;5589967;31;34469;-68
2023/03/20 10:12:42;;;;;;;;;;;;;;;15.96;40.15;100489.69;5576716;31;34919;-68
2023/03/20 10:16:05;;;;;;;;;;;;;;;16.22;39.33;100488.94;5563516;31;33029;-67
2023/03/20 10:19:30;;;;;;;;;;;;;;;17.21;38.57;100493.41;5590061;31;34456;-69
2023/03/20 10:22:36;;;;;;;;;;;;;;;17.27;37.24;100489.06;5576838;31;34485;-67
2023/03/20 10:25:51;;;;;;;;;;;;;;;17.46;37.27;100490.88;5590188;31;34696;-68
2023/03/20 10:29:10;;;;;;;;;;;;;;;17.36;37.21;100493.16;5590236;31;34616;-68
2023/03/20 10:32:23;;;;;;;;;;;;;;;17.15;37.61;100490.72;5563289;31;33750;-67
2023/03/20 10:35:36;;;;;;;;;;;;;;;17.63;36.52;100494.78;5576219;31;35517;-68
2023/03/20 10:38:59;;;;;;;;;;;;;;;16.98;37.89;100484.13;5576331;31;34602;-68
2023/03/20 10:42:12;;;;;;;;;;;;;;;17.30;37.16;100489.47;5576553;31;35132;-70
2023/03/20 10:45:35;;;;;;;;;;;;;;;17.41;36.86;100474.59;5589892;31;35265;-69
2023/03/20 10:48:51;;;;;;;;;;;;;;;17.98;35.73;100478.34;5575944;31;33964;-70
2023/03/20 10:51:58;;;;;;;;;;;;;;;17.92;36.74;100481.88;5589776;31;34800;-69
2023/03/20 10:55:11;;;;;;;;;;;;;;;17.12;37.45;100473.19;5576775;31;35062;-68
2023/03/20 10:58:26;;;;;;;;;;;;;;;17.38;37.61;100472.31;5576328;31;34444;-68
2023/03/20 11:01:37;;;;;;;;;;;;;;;18.71;35.83;100470.69;5589906;31;34561;-69
2023/03/20 11:04:43;;;;;;;;;;;;;;;19.15;35.10;100462.47;5589853;31;34210;-69
2023/03/20 11:07:51;;;;;;;;;;;;;;;18.73;35.71;100460.56;5576065;31;33128;-69
2023/03/20 11:11:00;;;;;;;;;;;;;;;19.39;34.76;100458.91;5563165;31;32942;-69
2023/03/20 11:14:18;;;;;;;;;;;;;;;19.65;33.86;100452.44;5575092;31;34454;-69
2023/03/20 11:17:27;;;;;;;;;;;;;;;19.78;33.61;100444.22;5576301;31;34450;-70
2023/03/20 11:20:36;;;;;;;;;;;;;;;19.37;34.35;100446.72;5576059;31;35286;-69
2023/03/20 11:23:42;;;;;;;;;;;;;;;20.38;32.77;100436.16;5589641;31;34562;-69
2023/03/20 11:26:48;;;;;;;;;;;;;;;19.48;33.49;100436.06;5576219;31;34443;-70
2023/03/20 11:29:52;;;;;;;;;;;;;;;19.44;33.86;100442.94;5575131;31;34515;-70
2023/03/20 11:33:00;;;;;;;;;;;;;;;18.71;35.83;100433.09;5589652;31;34963;-69
2023/03/20 11:36:09;;;;;;;;;;;;;;;18.15;36.88;100429.28;5575798;31;32794;-68
2023/03/20 11:39:22;;;;;;;;;;;;;;;19.12;34.41;100427.97;5589626;31;34715;-70
2023/03/20 11:42:29;;;;;;;;;;;;;;;17.93;36.82;100417.25;5575952;31;34557;-68
2023/03/20 11:45:35;;;;;;;;;;;;;;;18.82;34.90;100424.31;5575798;31;34430;-69
2023/03/20 11:48:44;;;;;;;;;;;;;;;18.66;35.67;100421.13;5562739;31;33717;-68
2023/03/20 11:51:50;;;;;;;;;;;;;;;19.87;33.45;100423.19;5563019;31;35188;-69
2023/03/20 11:54:56;;;;;;;;;;;;;;;20.36;32.60;100422.09;5562413;31;34875;-70
2023/03/20 11:58:05;;;;;;;;;;;;;;;20.54;32.56;100421.19;5589373;31;34572;-70
2023/03/20 12:01:11;;;;;;;;;;;;;;;20.60;32.21;100406.78;5589283;31;34562;-70
2023/03/20 12:04:16;;;;;;;;;;;;;;;20.25;33.00;100410.19;5562514;31;34688;-69
2023/03/20 12:07:27;;;;;;;;;;;;;;;20.41;32.99;100408.75;5562146;31;34838;-70
2023/03/20 12:10:38;;;;;;;;;;;;;;;21.03;32.14;100414.53;5575415;31;34421;-69
2023/03/20 12:13:44;;;;;;;;;;;;;;;19.80;33.43;100404.41;5543434;31;996545;-68
2023/03/20 12:16:54;;;;;;;;;;;;;;;20.35;32.47;100405.09;5575389;31;33173;-70
2023/03/20 12:20:02;;;;;;;;;;;;;;;20.62;32.29;100399.31;5589241;31;34501;-68
2023/03/20 12:23:11;;;;;;;;;;;;;;;20.98;31.84;100398.25;5574828;31;33388;-68
2023/03/20 12:26:33;;;;;;;;;;;;;;;20.98;31.56;100393.66;5575559;31;34115;-69
2023/03/20 12:29:49;;;;;;;;;;;;;;;20.62;32.81;100389.31;5575848;31;34405;-68
2023/03/20 12:33:14;;;;;;;;;;;;;;;21.02;31.68;100389.44;5589289;31;34868;-69
2023/03/20 12:36:33;;;;;;;;;;;;;;;20.29;32.84;100389.00;5575144;31;33230;-70
2023/03/20 12:39:40;;;;;;;;;;;;;;;20.55;32.21;100394.00;5561857;31;33494;-69
2023/03/20 12:42:55;;;;;;;;;;;;;;;19.28;34.06;100388.88;5574655;31;34367;-68
2023/03/20 12:46:29;;;;;;;;;;;;;;;19.53;34.10;100387.78;5588797;31;34418;-70
2023/03/20 12:49:36;;;;;;;;;;;;;;;19.30;34.03;100389.50;5588650;31;34429;-68
2023/03/20 12:52:40;;;;;;;;;;;;;;;19.06;34.67;100392.03;5574660;31;34428;-69
2023/03/20 12:55:47;;;;;;;;;;;;;;;18.61;35.31;100383.34;5561648;31;34336;-68
2023/03/20 12:58:52;;;;;;;;;;;;;;;19.03;34.99;100381.69;5575044;31;35119;-68
2023/03/20 13:02:00;;;;;;;;;;;;;;;18.67;35.61;100371.72;5574604;31;34471;-69
2023/03/20 13:05:36;;;;;;;;;;;;;;;19.26;34.88;100364.09;5575028;31;35078;-68
2023/03/20 13:09:01;;;;;;;;;;;;;;;19.60;34.20;100366.19;5562992;31;34828;-69
2023/03/20 13:12:13;;;;;;;;;;;;;;;19.36;34.71;100367.06;5561636;31;34451;-69
2023/03/20 13:15:21;;;;;;;;;;;;;;;19.20;34.54;100367.66;5587816;31;34656;-68
2023/03/20 13:18:45;;;;;;;;;;;;;;;19.18;34.61;100349.06;5588218;31;34370;-68
2023/03/20 13:21:58;;;;;;;;;;;;;;;19.06;34.93;100354.38;5574491;31;34773;-68
2023/03/20 13:25:26;;;;;;;;;;;;;;;19.62;34.27;100352.47;5588109;31;35050;-68
2023/03/20 13:28:51;;;;;;;;;;;;;;;19.33;35.33;100354.88;5566053;31;33196;-68
2023/03/20 13:31:59;;;;;;;;;;;;;;;19.87;34.62;100350.47;5561130;31;35734;-67
2023/03/20 13:35:13;;;;;;;;;;;;;;;20.39;33.78;100351.56;5587893;31;34490;-67
2023/03/20 13:38:22;;;;;;;;;;;;;;;20.55;33.34;100350.88;5575246;31;34561;-68
2023/03/20 13:41:29;;;;;;;;;;;;;;;20.74;33.06;100338.94;5590489;31;35103;-69
2023/03/20 13:44:35;;;;;;;;;;;;;;;21.37;31.92;100340.03;5576391;31;33311;-67
2023/03/20 13:47:39;;;;;;;;;;;;;;;22.00;31.24;100346.13;5590462;31;35112;-69
2023/03/20 13:50:43;;;;;;;;;;;;;;;23.29;29.83;100340.53;5576450;31;34523;-69
2023/03/20 13:53:51;;;;;;;;;;;;;;;22.63;30.49;100341.47;5576709;31;34527;-68
2023/03/20 13:56:58;;;;;;;;;;;;;;;23.43;29.10;100335.56;5590514;31;34416;-68
2023/03/20 14:00:09;;;;;;;;;;;;;;;22.09;30.70;100333.03;5590339;31;34495;-68
2023/03/20 14:03:20;;;;;;;;;;;;;;;21.58;31.63;100333.97;5590161;31;34072;-68
2023/03/20 14:06:29;;;;;;;;;;;;;;;20.59;33.11;100335.06;5590165;31;35173;-68
2023/03/20 14:09:37;;;;;;;;;;;;;;;19.98;34.02;100332.72;5563316;31;35670;-69
2023/03/20 14:12:47;;;;;;;;;;;;;;;19.73;34.88;100330.19;5576699;31;35009;-69
2023/03/20 14:15:53;;;;;;;;;;;;;;;20.56;33.81;100327.44;5590046;31;34521;-68
2023/03/20 14:19:27;;;;;;;;;;;;;;;20.08;34.36;100323.03;5590032;31;35178;-69
2023/03/20 14:22:37;;;;;;;;;;;;;;;19.40;35.60;100325.22;5548422;31;33493;-68
2023/03/20 14:25:45;;;;;;;;;;;;;;;19.50;35.92;100317.47;5589946;31;34516;-69
2023/03/20 14:28:56;;;;;;;;;;;;;;;18.99;36.88;100331.28;5576282;31;34301;-68
2023/03/20 14:32:04;;;;;;;;;;;;;;;18.58;37.78;100326.53;5589789;31;34099;-68
2023/03/20 14:35:13;;;;;;;;;;;;;;;18.59;37.92;100318.25;5589850;31;34520;-69
2023/03/20 14:38:21;;;;;;;;;;;;;;;18.27;38.73;100318.50;5589588;31;35218;-68
2023/03/20 14:41:37;;;;;;;;;;;;;;;18.10;39.27;100318.25;5589847;31;35270;-68
2023/03/20 14:45:16;;;;;;;;;;;;;;;18.18;39.82;100316.09;5589489;31;34611;-68
2023/03/20 14:48:23;;;;;;;;;;;;;;;18.31;39.28;100307.09;5589267;31;34438;-68
2023/03/20 14:51:40;;;;;;;;;;;;;;;18.08;39.61;100315.78;5574395;31;34881;-68
2023/03/20 14:54:51;;;;;;;;;;;;;;;18.02;40.19;100313.12;5576158;31;34928;-69
2023/03/20 14:58:01;;;;;;;;;;;;;;;17.71;40.96;100314.78;5589941;31;35168;-69
2023/03/20 15:01:07;;;;;;;;;;;;;;;17.45;41.54;100314.06;5589449;31;35169;-68
2023/03/20 15:04:20;;;;;;;;;;;;;;;17.37;41.82;100299.88;5575980;31;35271;-70
2023/03/20 15:07:33;;;;;;;;;;;;;;;17.29;42.33;100310.84;5589637;31;34974;-69
2023/03/20 15:10:53;;;;;;;;;;;;;;;17.51;41.98;100307.84;5589494;31;34517;-69
2023/03/20 15:14:00;;;;;;;;;;;;;;;17.70;41.83;100301.59;5589251;31;34705;-67
2023/03/20 15:17:06;;;;;;;;;;;;;;;17.63;41.93;100300.78;5589290;31;34541;-68
2023/03/20 15:20:14;;;;;;;;;;;;;;;17.57;41.98;100298.97;5589259;31;34947;-68
2023/03/20 15:23:21;;;;;;;;;;;;;;;17.34;42.33;100297.63;5576010;31;34507;-68
2023/03/20 15:26:27;;;;;;;;;;;;;;;17.28;43.06;100294.97;5574763;31;33242;-68
2023/03/20 15:29:32;;;;;;;;;;;;;;;17.19;43.47;100293.53;5589292;31;34684;-67
2023/03/20 15:32:36;;;;;;;;;;;;;;;17.21;43.23;100295.00;5589036;31;34455;-68
2023/03/20 15:35:40;;;;;;;;;;;;;;;17.32;43.29;100296.19;5589119;31;34419;-68
2023/03/20 15:38:47;;;;;;;;;;;;;;;17.24;43.44;100294.56;5588771;31;35162;-69
2023/03/20 15:41:57;;;;;;;;;;;;;;;17.20;43.88;100293.34;5589020;31;34498;-68
2023/03/20 15:45:13;;;;;;;;;;;;;;;17.17;44.31;100301.81;5588590;31;34609;-68
2023/03/20 15:48:21;;;;;;;;;;;;;;;17.08;44.35;100299.59;5575722;31;35201;-68
2023/03/20 15:51:28;;;;;;;;;;;;;;;16.97;44.49;100298.37;5575516;31;35032;-69
2023/03/20 15:54:33;;;;;;;;;;;;;;;17.05;44.54;100295.47;5589121;31;34012;-67
2023/03/20 15:57:43;;;;;;;;;;;;;;;17.07;44.62;100303.31;5575781;31;34763;-68
2023/03/20 16:00:49;;;;;;;;;;;;;;;17.04;45.03;100295.69;5575018;31;35133;-68
2023/03/20 16:03:57;;;;;;;;;;;;;;;17.09;45.08;100288.63;5588839;31;35102;-70
2023/03/20 16:07:02;;;;;;;;;;;;;;;17.06;45.32;100286.41;5588682;31;34206;-68
2023/03/20 16:10:24;;;;;;;;;;;;;;;16.82;46.32;100289.78;5561746;31;33972;-68
2023/03/20 16:13:46;;;;;;;;;;;;;;;16.82;46.61;100295.13;5574859;31;34409;-68
2023/03/20 16:16:53;;;;;;;;;;;;;;;16.63;47.20;100294.16;5588544;31;34639;-69
2023/03/20 16:20:00;;;;;;;;;;;;;;;16.51;47.81;100301.13;5588787;31;35127;-69